Time;durP1;ratioP1;P1;durP2;ratioP2;P2;SDS_P1;SDS_P2;PMS_P1;PMS_P2;Temp;Humidity;BMP_temperature;BMP_pressure;BME280_temperature;BME280_humidity;BME280_pressure;Samples;Min_cycle;Max_cycle;Signal;HPM_P1;HPM_P2
2022/02/09 00:00:54;;;;;;;;;;;1.30;75.90;;;;;;5025249;28;89242;-43
2022/02/09 00:03:25;;;;;;;;;;;1.30;75.90;;;;;;5025574;28;87095;-43
2022/02/09 00:06:04;;;;;;;;;;;1.40;75.80;;;;;;5024780;28;88764;-41
2022/02/09 00:08:30;;;;;;;;;;;1.30;75.90;;;;;;5028055;28;89412;-43
2022/02/09 00:11:00;;;;;;;;;;;1.30;75.80;;;;;;5025052;28;88643;-42
2022/02/09 00:17:07;;;;;;;;;;;1.30;75.80;;;;;;5023864;28;86903;-43
2022/02/09 00:19:09;;;;;;;;;;;1.30;75.90;;;;;;5018398;28;88495;-43
2022/02/09 00:42:32;;;;;;;;;;;1.30;76.00;;;;;;5024775;28;87909;-43
2022/02/09 01:38:59;;;;;;;;;;;1.20;76.00;;;;;;5024155;28;87063;-43
2022/02/09 01:57:44;;;;;;;;;;;1.10;75.90;;;;;;5023830;28;86861;-42
2022/02/09 02:00:10;;;;;;;;;;;1.10;75.90;;;;;;5023781;28;87768;-41
2022/02/09 02:02:36;;;;;;;;;;;1.10;76.00;;;;;;5023279;28;90598;-42
2022/02/09 02:05:01;;;;;;;;;;;1.10;75.90;;;;;;5026678;28;87207;-41
2022/02/09 02:07:38;;;;;;;;;;;1.10;75.90;;;;;;5023182;28;89342;-43
2022/02/09 02:10:08;;;;;;;;;;;1.10;75.90;;;;;;5023937;28;86161;-42
2022/02/09 02:13:03;;;;;;;;;;;1.10;75.90;;;;;;5023473;28;87433;-41
2022/02/09 02:18:12;;;;;;;;;;;1.10;75.90;;;;;;5022538;28;87914;-42
2022/02/09 02:21:11;;;;;;;;;;;1.10;76.00;;;;;;5023203;28;89725;-42
2022/02/09 02:23:38;;;;;;;;;;;1.10;75.90;;;;;;5022242;28;87952;-43
2022/02/09 02:26:25;;;;;;;;;;;1.10;75.90;;;;;;5023355;28;87015;-43
2022/02/09 03:12:43;;;;;;;;;;;0.90;76.10;;;;;;5025997;28;87925;-41
2022/02/09 03:17:53;;;;;;;;;;;1.00;75.90;;;;;;5024456;28;87385;-43
2022/02/09 03:20:28;;;;;;;;;;;1.00;76.00;;;;;;5025979;28;89523;-42
2022/02/09 03:52:43;;;;;;;;;;;0.90;76.10;;;;;;5025386;28;86934;-43
2022/02/09 03:57:46;;;;;;;;;;;0.90;76.20;;;;;;5026004;28;86450;-41
2022/02/09 04:00:12;;;;;;;;;;;0.90;76.20;;;;;;5025599;28;86943;-43
2022/02/09 04:02:38;;;;;;;;;;;0.90;76.20;;;;;;5028145;28;89212;-43
2022/02/09 04:05:03;;;;;;;;;;;0.80;76.10;;;;;;5024729;28;88153;-42
2022/02/09 04:07:29;;;;;;;;;;;0.90;76.20;;;;;;5025563;28;89432;-42
2022/02/09 04:09:58;;;;;;;;;;;0.90;76.20;;;;;;5025297;28;88207;-42
2022/02/09 04:12:43;;;;;;;;;;;0.80;76.20;;;;;;5025317;28;87122;-43
2022/02/09 04:17:47;;;;;;;;;;;0.80;76.20;;;;;;5024691;28;88013;-43
2022/02/09 05:02:02;;;;;;;;;;;0.60;77.00;;;;;;5024598;28;86994;-43
2022/02/09 05:26:20;;;;;;;;;;;0.60;77.10;;;;;;5024468;28;87385;-42
2022/02/09 05:28:46;;;;;;;;;;;0.60;77.20;;;;;;5023743;28;90260;-42
2022/02/09 05:31:11;;;;;;;;;;;0.60;77.10;;;;;;5024031;28;86895;-42
2022/02/09 05:33:37;;;;;;;;;;;0.60;77.20;;;;;;5026661;28;88913;-42
2022/02/09 05:36:03;;;;;;;;;;;0.60;77.20;;;;;;5024325;28;87162;-42
2022/02/09 05:38:29;;;;;;;;;;;0.60;77.10;;;;;;5024064;28;89146;-43
2022/02/09 05:40:55;;;;;;;;;;;0.60;77.20;;;;;;5024226;28;88116;-42
2022/02/09 05:43:23;;;;;;;;;;;0.60;77.20;;;;;;5022876;28;87095;-41
2022/02/09 05:46:25;;;;;;;;;;;0.60;77.10;;;;;;5023882;28;88959;-42
2022/02/09 05:51:45;;;;;;;;;;;0.60;77.10;;;;;;5023381;28;86865;-41
2022/02/09 05:56:44;;;;;;;;;;;0.60;77.20;;;;;;5026288;28;87953;-43
2022/02/09 06:01:38;;;;;;;;;;;0.60;77.10;;;;;;5023644;28;87952;-40
2022/02/09 06:04:04;;;;;;;;;;;0.60;77.20;;;;;;5023508;28;87147;-42
2022/02/09 06:06:29;;;;;;;;;;;0.60;77.20;;;;;;5023890;28;88748;-42
2022/02/09 06:08:56;;;;;;;;;;;0.60;77.30;;;;;;5023264;28;89734;-41
2022/02/09 06:21:56;;;;;;;;;;;0.60;77.40;;;;;;5023300;28;87260;-42
2022/02/09 06:24:22;;;;;;;;;;;0.60;77.30;;;;;;5023498;28;87029;-41
2022/02/09 06:26:48;;;;;;;;;;;0.60;77.30;;;;;;5023358;28;88526;-42
2022/02/09 06:29:14;;;;;;;;;;;0.50;77.50;;;;;;5022892;28;89785;-41
2022/02/09 06:31:39;;;;;;;;;;;0.50;77.50;;;;;;5023483;28;86409;-41
2022/02/09 06:34:05;;;;;;;;;;;0.50;77.80;;;;;;5023372;28;87218;-42
2022/02/09 06:36:36;;;;;;;;;;;0.50;77.70;;;;;;5022913;28;89366;-43
2022/02/09 06:39:05;;;;;;;;;;;0.50;77.50;;;;;;5022774;28;87814;-41
2022/02/09 06:41:31;;;;;;;;;;;0.60;77.50;;;;;;5025646;28;89977;-41
2022/02/09 06:43:57;;;;;;;;;;;0.60;77.60;;;;;;5022609;28;87143;-41
2022/02/09 06:46:23;;;;;;;;;;;0.50;77.50;;;;;;5023029;28;88884;-43
2022/02/09 06:48:49;;;;;;;;;;;0.50;77.50;;;;;;5022709;28;89503;-43
2022/02/09 06:51:19;;;;;;;;;;;0.50;77.50;;;;;;5022783;28;87039;-43
2022/02/09 06:54:00;;;;;;;;;;;0.50;77.50;;;;;;5023065;28;88781;-41
2022/02/09 06:56:40;;;;;;;;;;;0.50;77.60;;;;;;5023114;28;88530;-42
2022/02/09 06:59:51;;;;;;;;;;;0.50;77.40;;;;;;5023156;28;86967;-41
2022/02/09 07:01:52;;;;;;;;;;;0.50;77.40;;;;;;5018823;28;87199;-42
2022/02/09 07:04:17;;;;;;;;;;;0.60;77.50;;;;;;5024820;28;90593;-41
2022/02/09 07:06:43;;;;;;;;;;;0.60;77.60;;;;;;5022677;28;89809;-41
2022/02/09 07:09:08;;;;;;;;;;;0.60;77.60;;;;;;5022278;28;89318;-42
2022/02/09 07:11:34;;;;;;;;;;;0.60;77.70;;;;;;5022627;28;87252;-43
2022/02/09 07:13:59;;;;;;;;;;;0.50;77.80;;;;;;5023048;28;89279;-42
2022/02/09 07:16:26;;;;;;;;;;;0.50;77.90;;;;;;5022527;28;89350;-41
2022/02/09 07:18:51;;;;;;;;;;;0.50;78.10;;;;;;5022823;28;87106;-41
2022/02/09 07:21:23;;;;;;;;;;;0.50;78.00;;;;;;5023105;28;89281;-41
2022/02/09 07:23:51;;;;;;;;;;;0.50;78.00;;;;;;5022444;28;89651;-42
2022/02/09 07:26:21;;;;;;;;;;;0.50;78.10;;;;;;5025342;28;86970;-41
2022/02/09 07:28:46;;;;;;;;;;;0.50;78.20;;;;;;5022440;28;89522;-43
2022/02/09 07:31:13;;;;;;;;;;;0.50;78.10;;;;;;5025886;28;87108;-41
2022/02/09 07:33:42;;;;;;;;;;;0.50;78.00;;;;;;5025953;28;88612;-43
2022/02/09 07:36:09;;;;;;;;;;;0.50;78.30;;;;;;5025392;28;89542;-43
2022/02/09 07:38:35;;;;;;;;;;;0.40;78.50;;;;;;5025985;28;87169;-41
2022/02/09 07:41:01;;;;;;;;;;;0.50;78.50;;;;;;5025900;28;88826;-42
2022/02/09 07:43:48;;;;;;;;;;;0.40;78.40;;;;;;5024998;28;89474;-41
2022/02/09 07:49:48;;;;;;;;;;;0.40;78.40;;;;;;5025676;28;87315;-42
2022/02/09 07:52:00;;;;;;;;;;;0.40;78.20;;;;;;5023142;28;87204;-42
2022/02/09 07:54:26;;;;;;;;;;;0.40;78.20;;;;;;5025193;28;89217;-43
2022/02/09 07:56:52;;;;;;;;;;;0.50;78.20;;;;;;5025220;28;89397;-41
2022/02/09 07:59:17;;;;;;;;;;;0.40;79.10;;;;;;5025304;28;87801;-43
2022/02/09 08:01:43;;;;;;;;;;;0.40;78.20;;;;;;5025613;28;88610;-42
2022/02/09 08:04:09;;;;;;;;;;;0.50;78.30;;;;;;5025417;28;88080;-43
2022/02/09 08:06:36;;;;;;;;;;;0.50;78.20;;;;;;5025418;28;87088;-42
2022/02/09 08:09:07;;;;;;;;;;;0.50;78.30;;;;;;5027971;28;88102;-43
2022/02/09 08:27:36;;;;;;;;;;;0.50;78.10;;;;;;5023752;28;87059;-43
2022/02/09 08:32:50;;;;;;;;;;;0.50;78.60;;;;;;5027511;28;87101;-43
2022/02/09 08:35:15;;;;;;;;;;;0.50;78.10;;;;;;5025217;28;88620;-43
2022/02/09 08:37:41;;;;;;;;;;;0.50;78.30;;;;;;5025010;28;88902;-41
2022/02/09 08:40:07;;;;;;;;;;;0.50;78.30;;;;;;5023986;28;87150;-43
2022/02/09 08:42:33;;;;;;;;;;;0.50;78.10;;;;;;5024246;28;90036;-43
2022/02/09 08:44:59;;;;;;;;;;;0.40;78.80;;;;;;5023946;28;89208;-43
2022/02/09 08:47:25;;;;;;;;;;;0.50;78.50;;;;;;5024773;28;87185;-42
2022/02/09 08:49:51;;;;;;;;;;;0.40;78.20;;;;;;5025074;28;88790;-43
2022/02/09 08:52:16;;;;;;;;;;;0.40;78.60;;;;;;5024142;28;89249;-44
2022/02/09 08:54:42;;;;;;;;;;;0.50;78.30;;;;;;5027851;28;87183;-43
2022/02/09 08:57:09;;;;;;;;;;;0.40;78.30;;;;;;5024264;28;89476;-43
2022/02/09 08:59:35;;;;;;;;;;;0.40;78.90;;;;;;5024578;28;87136;-44
2022/02/09 09:02:06;;;;;;;;;;;0.40;78.90;;;;;;5025009;28;88731;-44
2022/02/09 09:04:40;;;;;;;;;;;0.40;78.60;;;;;;5024548;28;89631;-43
2022/02/09 09:07:17;;;;;;;;;;;0.50;78.90;;;;;;5024471;28;87076;-41
2022/02/09 09:10:09;;;;;;;;;;;0.50;78.60;;;;;;5024076;28;88631;-42
2022/02/09 10:03:28;;;;;;;;;;;0.40;78.90;;;;;;5023664;28;88220;-44
2022/02/09 10:30:52;;;;;;;;;;;0.50;79.30;;;;;;5021994;28;86937;-44
2022/02/09 10:31:28;;;;;;;;;;;0.50;79.30;;;;;;5022450;28;88283;-44
2022/02/09 10:33:52;;;;;;;;;;;0.50;79.10;;;;;;5022853;28;87049;-44
2022/02/09 10:36:20;;;;;;;;;;;0.50;78.80;;;;;;5023537;28;86956;-43
2022/02/09 10:38:47;;;;;;;;;;;0.50;79.30;;;;;;5022815;28;89372;-44
2022/02/09 10:41:17;;;;;;;;;;;0.50;78.80;;;;;;5023207;28;87152;-44
2022/02/09 10:43:45;;;;;;;;;;;0.50;79.20;;;;;;5022523;28;89176;-43
2022/02/09 10:46:13;;;;;;;;;;;0.50;79.20;;;;;;5022864;28;89417;-45
2022/02/09 10:48:53;;;;;;;;;;;0.50;78.90;;;;;;5023464;28;86445;-42
2022/02/09 10:54:31;;;;;;;;;;;0.50;79.30;;;;;;5023062;28;87127;-44
2022/02/09 10:57:00;;;;;;;;;;;0.50;79.30;;;;;;4998970;28;89040;-44
2022/02/09 10:59:29;;;;;;;;;;;0.50;79.30;;;;;;5022390;28;89455;-43
2022/02/09 11:02:00;;;;;;;;;;;0.50;79.40;;;;;;5023093;28;87112;-43
2022/02/09 11:04:26;;;;;;;;;;;0.50;79.20;;;;;;5025074;28;87961;-44
2022/02/09 11:06:52;;;;;;;;;;;0.50;79.10;;;;;;5025830;28;89330;-43
2022/02/09 11:09:18;;;;;;;;;;;0.50;79.20;;;;;;5026434;28;87373;-43
2022/02/09 11:11:45;;;;;;;;;;;0.50;79.20;;;;;;5025915;28;88854;-47
2022/02/09 11:14:14;;;;;;;;;;;0.50;79.20;;;;;;5029412;28;88743;-43
2022/02/09 11:16:45;;;;;;;;;;;0.50;79.00;;;;;;5026260;28;88138;-43
2022/02/09 11:19:11;;;;;;;;;;;0.50;79.30;;;;;;5026096;28;87961;-44
2022/02/09 11:21:38;;;;;;;;;;;0.50;79.40;;;;;;5025375;28;88077;-42
2022/02/09 11:24:18;;;;;;;;;;;0.50;79.50;;;;;;5025870;28;89974;-46
2022/02/09 11:29:23;;;;;;;;;;;0.50;79.80;;;;;;5024615;28;86855;-44
2022/02/09 11:32:05;;;;;;;;;;;0.50;79.80;;;;;;5025811;28;89084;-46
2022/02/09 11:34:54;;;;;;;;;;;0.60;79.90;;;;;;5025541;28;89506;-43
2022/02/09 11:37:36;;;;;;;;;;;0.60;80.00;;;;;;5028907;28;86906;-44
2022/02/09 11:40:19;;;;;;;;;;;0.50;79.70;;;;;;5026211;28;88793;-46
2022/02/09 11:42:52;;;;;;;;;;;0.60;80.70;;;;;;5025596;28;87124;-47
2022/02/09 11:45:39;;;;;;;;;;;0.60;80.20;;;;;;5026099;28;87864;-43
2022/02/09 11:51:09;;;;;;;;;;;0.60;80.40;;;;;;5003310;28;87896;-44
2022/02/09 12:10:22;;;;;;;;;;;0.70;80.40;;;;;;5025359;28;87256;-44
2022/02/09 12:13:00;;;;;;;;;;;0.70;79.80;;;;;;5025140;28;86995;-44
2022/02/09 12:15:46;;;;;;;;;;;0.70;80.30;;;;;;5024951;28;88104;-43
2022/02/09 12:18:35;;;;;;;;;;;0.70;80.70;;;;;;5025100;28;89560;-44
2022/02/09 12:21:06;;;;;;;;;;;0.70;80.10;;;;;;5024786;28;87130;-44
2022/02/09 12:23:38;;;;;;;;;;;0.70;80.20;;;;;;5027992;28;89135;-44
2022/02/09 12:26:08;;;;;;;;;;;0.70;79.80;;;;;;5025135;28;87008;-44
2022/02/09 12:28:39;;;;;;;;;;;0.70;79.90;;;;;;5025258;28;88892;-45
2022/02/09 12:31:09;;;;;;;;;;;0.70;81.20;;;;;;5024629;28;89555;-44
2022/02/09 12:33:40;;;;;;;;;;;0.70;80.80;;;;;;5025701;28;86451;-44
2022/02/09 12:36:08;;;;;;;;;;;0.80;80.50;;;;;;5025233;28;88176;-44
2022/02/09 12:38:34;;;;;;;;;;;0.80;80.60;;;;;;5024506;28;88727;-43
2022/02/09 12:41:09;;;;;;;;;;;0.70;80.00;;;;;;5024368;28;88102;-44
2022/02/09 12:43:55;;;;;;;;;;;0.80;80.60;;;;;;5024392;28;89754;-45
2022/02/09 12:46:22;;;;;;;;;;;0.80;80.50;;;;;;5027335;28;89356;-42
2022/02/09 12:48:48;;;;;;;;;;;0.80;81.20;;;;;;5024895;28;88835;-43
2022/02/09 12:51:24;;;;;;;;;;;0.80;81.10;;;;;;5024236;28;89484;-44
2022/02/09 12:53:49;;;;;;;;;;;0.80;81.10;;;;;;5024744;28;87571;-44
2022/02/09 12:56:18;;;;;;;;;;;0.80;81.00;;;;;;5024585;28;89297;-45
2022/02/09 12:58:53;;;;;;;;;;;0.80;81.50;;;;;;5025097;28;88987;-43
2022/02/09 13:01:18;;;;;;;;;;;0.80;81.40;;;;;;5024812;28;86971;-44
2022/02/09 13:03:44;;;;;;;;;;;0.80;81.10;;;;;;5024639;28;89117;-43
2022/02/09 13:06:10;;;;;;;;;;;0.80;81.30;;;;;;5023624;28;90231;-43
2022/02/09 13:08:35;;;;;;;;;;;0.80;81.20;;;;;;5027182;28;87149;-43
2022/02/09 13:11:14;;;;;;;;;;;0.80;81.50;;;;;;5024102;28;89844;-44
2022/02/09 13:13:42;;;;;;;;;;;0.80;81.40;;;;;;5024740;28;86938;-45
2022/02/09 14:13:59;;;;;;;;;;;0.90;82.10;;;;;;5023308;28;86904;-46
2022/02/09 14:33:39;;;;;;;;;;;1.00;81.80;;;;;;5022869;28;87268;-43
2022/02/09 14:53:54;;;;;;;;;;;1.10;81.80;;;;;;5023523;28;88839;-44
2022/02/09 14:56:27;;;;;;;;;;;1.00;81.80;;;;;;5026779;28;86920;-45
2022/02/09 14:58:59;;;;;;;;;;;1.00;81.70;;;;;;5026742;28;88783;-45
2022/02/09 15:02:01;;;;;;;;;;;1.00;81.60;;;;;;5026286;28;89577;-45
2022/02/09 15:12:17;;;;;;;;;;;1.10;81.70;;;;;;5026490;28;86607;-43
2022/02/09 15:15:00;;;;;;;;;;;1.10;81.70;;;;;;5026019;28;89508;-45
2022/02/09 15:17:40;;;;;;;;;;;1.10;81.80;;;;;;5026543;28;86842;-43
2022/02/09 15:22:37;;;;;;;;;;;1.10;81.60;;;;;;5025811;28;87275;-43
2022/02/09 15:25:10;;;;;;;;;;;1.10;81.70;;;;;;5026340;28;87127;-45
2022/02/09 15:27:36;;;;;;;;;;;1.10;81.70;;;;;;5026371;28;89068;-43
2022/02/09 15:30:02;;;;;;;;;;;1.10;81.60;;;;;;5028834;28;89607;-43
2022/02/09 15:32:36;;;;;;;;;;;1.10;81.70;;;;;;5026082;28;88776;-44
2022/02/09 15:35:10;;;;;;;;;;;1.10;81.80;;;;;;5025417;28;89855;-43
2022/02/09 15:37:44;;;;;;;;;;;1.10;81.70;;;;;;5026370;28;86242;-43
2022/02/09 15:41:02;;;;;;;;;;;1.10;81.80;;;;;;5026205;28;88139;-45
2022/02/09 15:43:23;;;;;;;;;;;1.10;81.70;;;;;;5016261;28;89121;-43
2022/02/09 16:24:08;;;;;;;;;;;1.20;81.60;;;;;;5025348;28;87288;-44
2022/02/09 16:37:48;;;;;;;;;;;1.20;81.50;;;;;;5024815;28;86941;-43
2022/02/09 16:46:16;;;;;;;;;;;1.30;81.50;;;;;;5024439;28;86902;-43
2022/02/09 16:48:37;;;;;;;;;;;1.20;81.50;;;;;;5021259;28;87254;-44
2022/02/09 16:51:11;;;;;;;;;;;1.20;81.60;;;;;;5024782;28;87141;-42
2022/02/09 17:20:55;;;;;;;;;;;1.30;81.50;;;;;;5023488;28;86989;-44
2022/02/09 17:23:21;;;;;;;;;;;1.30;81.50;;;;;;5024391;28;88861;-44
2022/02/09 17:25:46;;;;;;;;;;;1.30;81.40;;;;;;5024521;28;89226;-45
2022/02/09 17:28:15;;;;;;;;;;;1.30;81.50;;;;;;5027095;28;87058;-43
2022/02/09 17:36:39;;;;;;;;;;;1.30;81.50;;;;;;5023978;28;87405;-43
2022/02/09 17:57:47;;;;;;;;;;;1.40;81.50;;;;;;5024068;28;87361;-43
2022/02/09 18:02:40;;;;;;;;;;;1.40;82.20;;;;;;5023849;28;87125;-43
2022/02/09 18:05:12;;;;;;;;;;;1.40;81.70;;;;;;5023857;28;89190;-42
2022/02/09 18:07:39;;;;;;;;;;;1.40;81.80;;;;;;5023098;28;89406;-42
2022/02/09 18:10:19;;;;;;;;;;;1.30;81.80;;;;;;5023636;28;87060;-42
2022/02/09 19:03:37;;;;;;;;;;;1.50;82.70;;;;;;5021765;28;87139;-44
2022/02/09 19:06:14;;;;;;;;;;;1.50;82.80;;;;;;5022797;28;86918;-43
2022/02/09 19:14:09;;;;;;;;;;;1.50;82.70;;;;;;5023234;28;89010;-43
2022/02/09 19:30:01;;;;;;;;;;;1.50;82.50;;;;;;5024272;28;87389;-46
2022/02/09 19:48:14;;;;;;;;;;;1.50;82.30;;;;;;5028483;28;88067;-44
2022/02/09 19:53:37;;;;;;;;;;;1.50;82.40;;;;;;5023898;28;87810;-45
2022/02/09 19:56:09;;;;;;;;;;;1.50;82.40;;;;;;5025699;28;86930;-43
2022/02/09 19:58:53;;;;;;;;;;;1.50;82.50;;;;;;5025814;28;88728;-43
2022/02/09 20:01:20;;;;;;;;;;;1.50;82.40;;;;;;5025404;28;89603;-43
2022/02/09 20:03:46;;;;;;;;;;;1.50;82.30;;;;;;5025851;28;86274;-44
2022/02/09 20:06:12;;;;;;;;;;;1.50;82.40;;;;;;5025540;28;88758;-45
2022/02/09 20:08:38;;;;;;;;;;;1.50;82.50;;;;;;5025051;28;89645;-47
2022/02/09 20:11:04;;;;;;;;;;;1.50;82.40;;;;;;5027393;28;88151;-44
2022/02/09 20:13:30;;;;;;;;;;;1.60;82.50;;;;;;5025256;28;89641;-43
2022/02/09 20:15:55;;;;;;;;;;;1.50;82.50;;;;;;5025444;28;87135;-44
2022/02/09 20:18:21;;;;;;;;;;;1.60;82.50;;;;;;5025274;28;88747;-43
2022/02/09 20:20:47;;;;;;;;;;;1.60;82.50;;;;;;5023699;28;90349;-43
2022/02/09 20:23:13;;;;;;;;;;;1.60;82.50;;;;;;5025388;28;87239;-43
2022/02/09 20:25:38;;;;;;;;;;;1.60;82.50;;;;;;5025110;28;88744;-44
2022/02/09 20:28:05;;;;;;;;;;;1.60;82.50;;;;;;5025235;28;89073;-44
2022/02/09 20:30:40;;;;;;;;;;;1.60;82.50;;;;;;5025004;28;86896;-43
2022/02/09 20:33:11;;;;;;;;;;;1.60;82.50;;;;;;5027680;28;89147;-45
2022/02/09 20:35:37;;;;;;;;;;;1.60;82.40;;;;;;5024299;28;87864;-44
2022/02/09 20:38:02;;;;;;;;;;;1.60;82.50;;;;;;5024264;28;89742;-45
2022/02/09 20:40:45;;;;;;;;;;;1.60;82.40;;;;;;5024927;28;90545;-45
2022/02/09 20:43:11;;;;;;;;;;;1.60;82.40;;;;;;5024657;28;87069;-43
2022/02/09 20:45:48;;;;;;;;;;;1.60;82.50;;;;;;5024818;28;89048;-42
2022/02/09 20:48:15;;;;;;;;;;;1.60;82.50;;;;;;5024528;28;89596;-43
2022/02/09 20:50:42;;;;;;;;;;;1.60;82.50;;;;;;5024725;28;87155;-46
2022/02/09 20:53:08;;;;;;;;;;;1.60;82.40;;;;;;5027616;28;89118;-46
2022/02/09 20:55:34;;;;;;;;;;;1.60;82.70;;;;;;5024644;28;87079;-45
2022/02/09 20:58:00;;;;;;;;;;;1.60;82.70;;;;;;5024852;28;88717;-43
2022/02/09 21:03:04;;;;;;;;;;;1.60;82.50;;;;;;5024855;28;87119;-43
2022/02/09 21:10:51;;;;;;;;;;;1.60;82.70;;;;;;5024805;28;87222;-47
2022/02/09 21:21:45;;;;;;;;;;;1.70;82.60;;;;;;5024343;28;87066;-45
2022/02/09 21:58:46;;;;;;;;;;;1.70;82.50;;;;;;5023827;28;87347;-45
2022/02/09 22:20:17;;;;;;;;;;;1.70;82.40;;;;;;5022017;28;88229;-44
2022/02/09 22:26:17;;;;;;;;;;;1.70;82.20;;;;;;5023691;28;87336;-45
2022/02/09 22:28:20;;;;;;;;;;;1.70;82.20;;;;;;5025660;28;88206;-45
2022/02/09 22:49:38;;;;;;;;;;;1.70;81.90;;;;;;5022193;28;87270;-44
2022/02/09 22:54:48;;;;;;;;;;;1.70;81.90;;;;;;5023027;28;87156;-43
2022/02/09 22:57:15;;;;;;;;;;;1.70;81.80;;;;;;5022906;28;87111;-43
2022/02/09 22:59:50;;;;;;;;;;;1.70;81.80;;;;;;5023686;28;89025;-44
2022/02/09 23:02:26;;;;;;;;;;;1.70;81.80;;;;;;5026294;28;89672;-44
2022/02/09 23:10:17;;;;;;;;;;;1.70;81.60;;;;;;5026256;28;88142;-44
2022/02/09 23:12:50;;;;;;;;;;;1.70;81.60;;;;;;5028852;28;87973;-44
2022/02/09 23:15:30;;;;;;;;;;;1.70;81.60;;;;;;5026171;28;89410;-43
